Time;durP1;ratioP1;P1;durP2;ratioP2;P2;SDS_P1;SDS_P2;PMS_P1;PMS_P2;Temp;Humidity;BMP_temperature;BMP_pressure;BME280_temperature;BME280_humidity;BME280_pressure;Samples;Min_cycle;Max_cycle;Signal;HPM_P1;HPM_P2
2021/10/27 00:01:02;;;;;;;10.57;8.48;;;22.90;37.00;;;;;;4780542;29;20051;-53
2021/10/27 00:03:30;;;;;;;9.45;8.07;;;22.90;37.00;;;;;;4785392;29;20580;-49
2021/10/27 00:05:57;;;;;;;8.50;6.93;;;22.90;37.00;;;;;;4786038;29;20104;-54
2021/10/27 00:08:25;;;;;;;10.35;8.32;;;22.90;37.00;;;;;;4773163;29;20113;-53
2021/10/27 00:10:52;;;;;;;10.65;8.23;;;22.90;37.00;;;;;;4780450;29;20434;-53
2021/10/27 00:13:20;;;;;;;10.73;8.55;;;22.90;37.00;;;;;;4784473;29;20171;-52
2021/10/27 00:15:47;;;;;;;10.68;8.23;;;22.90;37.00;;;;;;4785324;29;20047;-49
2021/10/27 00:18:14;;;;;;;10.75;8.45;;;22.90;37.00;;;;;;4778027;29;20055;-54
2021/10/27 00:20:42;;;;;;;10.13;7.90;;;22.90;37.00;;;;;;4778166;29;20058;-54
2021/10/27 00:23:10;;;;;;;8.90;7.70;;;22.80;37.00;;;;;;4785473;29;20126;-53
2021/10/27 00:25:37;;;;;;;9.95;7.95;;;22.90;37.00;;;;;;4785318;29;20051;-54
2021/10/27 00:28:05;;;;;;;11.57;8.32;;;22.80;37.00;;;;;;4778031;29;20116;-52
2021/10/27 00:30:32;;;;;;;10.10;7.78;;;22.90;37.00;;;;;;4775160;29;20415;-53
2021/10/27 00:33:00;;;;;;;10.10;8.23;;;22.80;37.00;;;;;;4784818;29;20051;-54
2021/10/27 00:35:27;;;;;;;8.63;7.28;;;22.80;37.00;;;;;;4783945;29;20063;-55
2021/10/27 00:37:54;;;;;;;9.73;7.85;;;22.90;37.00;;;;;;4778543;29;20055;-53
2021/10/27 00:40:22;;;;;;;10.70;8.50;;;22.90;37.60;;;;;;4772971;30;20055;-51
2021/10/27 00:42:49;;;;;;;13.55;8.45;;;22.80;37.00;;;;;;4785059;29;20047;-55
2021/10/27 00:45:17;;;;;;;9.70;7.57;;;22.90;37.00;;;;;;4785108;29;20066;-54
2021/10/27 00:47:44;;;;;;;10.95;8.63;;;22.80;36.90;;;;;;4777839;29;20059;-57
2021/10/27 00:50:11;;;;;;;9.60;8.07;;;22.80;36.90;;;;;;4774717;29;20051;-50
2021/10/27 00:52:38;;;;;;;10.07;7.40;;;22.80;36.90;;;;;;4784901;29;20055;-54
2021/10/27 00:55:06;;;;;;;11.02;8.00;;;22.80;36.90;;;;;;4785034;29;20112;-53
2021/10/27 00:57:34;;;;;;;9.30;7.80;;;22.80;36.90;;;;;;4782379;29;20066;-54
2021/10/27 01:00:05;;;;;;;10.25;7.97;;;22.90;37.00;;;;;;4769994;29;20055;-53
2021/10/27 01:02:32;;;;;;;;;;;22.80;36.90;;;;;;4785278;29;20051;-54
2021/10/27 01:04:59;;;;;;;9.93;7.75;;;22.80;36.90;;;;;;4783672;30;19991;-53
2021/10/27 01:07:27;;;;;;;10.13;7.82;;;22.80;36.90;;;;;;4784159;29;20482;-54
2021/10/27 01:09:54;;;;;;;10.80;7.88;;;22.80;36.90;;;;;;4767998;29;20104;-55
2021/10/27 01:12:22;;;;;;;9.90;7.43;;;22.90;36.90;;;;;;4784758;29;20059;-54
2021/10/27 01:14:49;;;;;;;10.05;7.28;;;22.90;36.90;;;;;;4784429;29;20055;-52
2021/10/27 01:17:17;;;;;;;9.90;7.57;;;22.90;36.90;;;;;;4784732;29;20418;-54
2021/10/27 01:19:55;;;;;;;10.48;8.18;;;22.90;36.90;;;;;;4766678;29;20059;-52
2021/10/27 01:22:26;;;;;;;8.57;7.47;;;22.90;36.90;;;;;;4783008;29;20055;-54
2021/10/27 01:24:55;;;;;;;8.88;7.50;;;22.90;36.90;;;;;;4784584;29;20059;-53
2021/10/27 01:27:23;;;;;;;9.10;7.40;;;22.80;36.90;;;;;;4784333;29;20463;-54
2021/10/27 01:29:50;;;;;;;10.80;7.70;;;22.80;36.90;;;;;;4766465;29;20055;-53
2021/10/27 01:32:26;;;;;;;10.82;7.43;;;22.80;36.90;;;;;;4784132;29;20117;-55
2021/10/27 01:34:54;;;;;;;9.98;7.90;;;22.80;36.90;;;;;;4784274;29;20048;-52
2021/10/27 01:37:22;;;;;;;8.32;7.35;;;22.80;37.00;;;;;;4784357;29;20120;-53
2021/10/27 01:39:51;;;;;;;9.52;7.65;;;22.80;37.00;;;;;;4766965;29;20864;-54
2021/10/27 01:42:19;;;;;;;8.30;6.95;;;22.70;37.00;;;;;;4784064;29;20083;-54
2021/10/27 01:44:46;;;;;;;9.35;7.03;;;22.80;37.10;;;;;;4783517;29;20460;-55
2021/10/27 01:47:14;;;;;;;9.10;7.45;;;22.80;37.00;;;;;;4783799;29;20059;-52
2021/10/27 01:49:42;;;;;;;11.27;8.02;;;22.80;37.00;;;;;;4766231;29;20120;-55
2021/10/27 01:52:10;;;;;;;9.80;8.23;;;22.80;37.00;;;;;;4783513;29;20471;-53
2021/10/27 01:54:39;;;;;;;8.02;7.07;;;22.80;37.00;;;;;;4783632;29;20502;-53
2021/10/27 01:57:07;;;;;;;9.65;7.55;;;22.80;37.00;;;;;;4783957;29;20091;-53
2021/10/27 01:59:35;;;;;;;8.32;6.40;;;22.70;37.00;;;;;;4765658;29;20059;-51
2021/10/27 02:02:04;;;;;;;8.13;6.63;;;22.70;37.00;;;;;;4782674;30;20104;-53
2021/10/27 02:04:31;;;;;;;8.80;7.07;;;22.70;37.10;;;;;;4782108;29;20066;-51
2021/10/27 02:07:00;;;;;;;9.55;7.75;;;22.70;37.10;;;;;;4783929;29;20509;-54
2021/10/27 02:09:28;;;;;;;10.13;6.70;;;22.70;37.10;;;;;;4766682;29;20922;-54
2021/10/27 02:11:55;;;;;;;10.55;6.88;;;22.70;37.10;;;;;;4782830;30;20074;-53
2021/10/27 02:14:23;;;;;;;10.60;7.82;;;22.70;37.10;;;;;;4783472;29;20502;-54
2021/10/27 02:16:50;;;;;;;8.35;7.20;;;22.70;37.10;;;;;;4783362;29;20055;-53
2021/10/27 02:19:18;;;;;;;9.75;7.10;;;22.70;37.10;;;;;;4765616;29;20171;-51
2021/10/27 02:21:45;;;;;;;9.27;6.82;;;22.70;37.00;;;;;;4783526;29;20169;-55
2021/10/27 02:24:12;;;;;;;7.85;6.68;;;22.70;37.10;;;;;;4783455;29;20059;-53
2021/10/27 02:26:39;;;;;;;9.13;7.20;;;22.70;37.00;;;;;;4783455;29;20055;-51
2021/10/27 02:29:07;;;;;;;8.63;6.90;;;22.70;37.10;;;;;;4770834;29;20061;-52
2021/10/27 02:31:34;;;;;;;7.93;6.53;;;22.70;37.00;;;;;;4778222;30;20100;-52
2021/10/27 02:34:01;;;;;;;9.00;7.32;;;22.70;37.10;;;;;;4783009;29;20054;-54
2021/10/27 02:36:28;;;;;;;9.13;7.72;;;22.70;37.00;;;;;;4783483;29;20051;-51
2021/10/27 02:38:56;;;;;;;8.13;6.80;;;22.70;37.00;;;;;;4768415;29;20059;-54
2021/10/27 02:41:23;;;;;;;8.68;7.07;;;22.70;37.00;;;;;;4782580;29;20413;-54
2021/10/27 02:43:50;;;;;;;8.60;6.75;;;22.70;36.90;;;;;;4783591;29;20382;-52
2021/10/27 02:46:18;;;;;;;8.45;6.70;;;22.70;36.90;;;;;;4782003;30;20062;-55
2021/10/27 02:48:46;;;;;;;6.80;6.05;;;22.80;37.00;;;;;;4770964;29;20063;-53
2021/10/27 02:51:14;;;;;;;7.75;6.50;;;22.70;36.90;;;;;;4777190;30;20109;-53
2021/10/27 02:53:41;;;;;;;8.93;6.95;;;22.70;36.90;;;;;;4781888;29;20112;-51
2021/10/27 02:56:08;;;;;;;7.90;6.88;;;22.70;36.90;;;;;;4783007;29;20510;-54
2021/10/27 02:58:35;;;;;;;7.25;6.50;;;22.70;36.90;;;;;;4771941;29;20059;-54
2021/10/27 03:01:03;;;;;;;7.10;6.28;;;22.70;36.90;;;;;;4781854;29;20059;-49
2021/10/27 03:03:30;;;;;;;7.78;6.65;;;22.70;37.00;;;;;;4786843;29;20087;-53
2021/10/27 03:05:57;;;;;;;9.38;7.03;;;22.70;37.00;;;;;;4786759;29;20494;-52
2021/10/27 03:08:25;;;;;;;8.43;6.47;;;22.70;37.10;;;;;;4774842;29;20062;-53
2021/10/27 03:10:52;;;;;;;6.68;5.97;;;22.70;37.10;;;;;;4780978;29;20994;-52
2021/10/27 03:13:19;;;;;;;7.65;6.80;;;22.70;37.10;;;;;;4786957;29;20107;-55
2021/10/27 03:15:46;;;;;;;7.72;6.28;;;22.70;37.10;;;;;;4786062;29;20108;-54
2021/10/27 03:18:14;;;;;;;7.57;6.50;;;22.70;37.20;;;;;;4779220;29;20471;-55
2021/10/27 03:20:43;;;;;;;7.97;6.60;;;22.70;37.30;;;;;;4781232;29;20051;-53
2021/10/27 03:23:10;;;;;;;9.60;7.07;;;22.70;37.30;;;;;;4785016;29;20052;-53
2021/10/27 03:25:37;;;;;;;10.52;6.43;;;22.70;37.40;;;;;;4786623;29;20063;-53
2021/10/27 03:28:04;;;;;;;7.97;6.40;;;22.70;37.40;;;;;;4778625;29;20062;-51
2021/10/27 03:30:32;;;;;;;10.02;6.82;;;22.70;37.50;;;;;;4775424;29;20491;-51
2021/10/27 03:32:59;;;;;;;7.00;6.05;;;22.60;37.50;;;;;;4781643;29;20138;-52
2021/10/27 03:35:26;;;;;;;9.27;6.78;;;22.70;37.60;;;;;;4784891;30;20055;-49
2021/10/27 03:37:53;;;;;;;7.47;5.90;;;22.70;37.60;;;;;;4777446;29;20528;-53
2021/10/27 03:40:21;;;;;;;7.82;5.85;;;22.70;37.60;;;;;;4770227;30;20059;-53
2021/10/27 03:42:49;;;;;;;8.05;6.28;;;22.70;37.60;;;;;;4776712;30;20055;-49
2021/10/27 03:45:16;;;;;;;7.00;6.25;;;22.60;37.60;;;;;;4785215;30;20059;-53
2021/10/27 03:47:45;;;;;;;7.35;5.90;;;22.70;37.70;;;;;;4781989;29;20448;-56
2021/10/27 03:50:14;;;;;;;7.15;6.22;;;22.60;37.60;;;;;;4775768;29;20442;-54
2021/10/27 03:52:42;;;;;;;6.80;5.82;;;22.60;37.60;;;;;;4785626;29;20067;-52
2021/10/27 03:55:11;;;;;;;8.45;6.30;;;22.60;38.20;;;;;;4786110;29;20051;-54
2021/10/27 03:57:39;;;;;;;10.20;6.03;;;22.60;37.70;;;;;;4782157;29;20055;-55
2021/10/27 04:00:08;;;;;;;8.60;7.28;;;22.60;37.70;;;;;;4774533;29;20566;-53
2021/10/27 04:02:40;;;;;;;9.77;6.82;;;22.60;37.60;;;;;;4785265;30;20078;-52
2021/10/27 04:05:09;;;;;;;8.43;6.43;;;22.60;37.60;;;;;;4785004;29;20395;-54
2021/10/27 04:07:37;;;;;;;9.40;6.80;;;22.60;37.60;;;;;;4783663;29;20078;-51
2021/10/27 04:10:08;;;;;;;9.67;5.97;;;22.50;37.60;;;;;;4774579;29;20468;-54
2021/10/27 04:12:36;;;;;;;7.63;6.20;;;22.50;37.60;;;;;;4785705;29;20063;-51
2021/10/27 04:15:06;;;;;;;8.95;6.55;;;22.60;37.60;;;;;;4783759;29;20062;-53
2021/10/27 04:17:34;;;;;;;9.60;6.18;;;22.60;37.60;;;;;;4781939;29;20077;-56
2021/10/27 04:20:05;;;;;;;10.52;7.32;;;22.60;37.60;;;;;;4764881;29;20789;-53
2021/10/27 04:22:33;;;;;;;8.48;6.55;;;22.60;37.60;;;;;;4781567;29;20055;-54
2021/10/27 04:25:01;;;;;;;10.15;6.60;;;22.60;37.50;;;;;;4776782;29;20055;-55
2021/10/27 04:27:29;;;;;;;7.60;6.80;;;22.60;37.50;;;;;;4784297;29;20047;-54
2021/10/27 04:29:56;;;;;;;9.90;7.57;;;22.70;37.50;;;;;;4767322;29;20059;-54
2021/10/27 04:32:23;;;;;;;9.52;6.20;;;22.60;37.50;;;;;;4784537;30;20043;-54
2021/10/27 04:34:50;;;;;;;8.90;6.93;;;22.70;37.50;;;;;;4784161;29;20104;-52
2021/10/27 04:37:18;;;;;;;9.02;6.90;;;22.60;37.40;;;;;;4784592;30;20388;-54
2021/10/27 04:39:46;;;;;;;9.80;7.13;;;22.60;37.30;;;;;;4767815;29;20425;-54
2021/10/27 04:42:14;;;;;;;8.98;6.47;;;22.70;37.40;;;;;;4784210;30;20059;-53
2021/10/27 04:44:41;;;;;;;9.20;6.63;;;22.70;37.40;;;;;;4784449;29;20614;-53
2021/10/27 04:47:08;;;;;;;9.05;7.85;;;22.60;37.30;;;;;;4783446;30;20111;-53
2021/10/27 04:49:36;;;;;;;7.95;7.15;;;22.70;37.40;;;;;;4761768;29;20055;-53
2021/10/27 04:52:04;;;;;;;9.95;7.13;;;22.60;37.40;;;;;;4777485;30;20070;-54
2021/10/27 04:54:31;;;;;;;8.98;7.07;;;22.60;37.40;;;;;;4783774;29;20584;-53
2021/10/27 04:56:59;;;;;;;8.60;6.45;;;22.60;37.40;;;;;;4783252;29;20047;-50
2021/10/27 04:59:35;;;;;;;8.25;6.53;;;22.60;37.40;;;;;;4762532;29;20051;-52
2021/10/27 05:02:03;;;;;;;13.35;7.32;;;22.60;37.40;;;;;;4783351;29;20055;-53
2021/10/27 05:04:31;;;;;;;11.55;7.40;;;22.60;37.40;;;;;;4778622;29;20085;-53
2021/10/27 05:06:58;;;;;;;10.48;7.05;;;22.60;37.10;;;;;;4781339;29;20059;-54
2021/10/27 05:09:25;;;;;;;8.90;7.35;;;22.50;36.70;;;;;;4763395;29;20066;-50
2021/10/27 05:11:53;;;;;;;10.30;7.75;;;22.60;36.60;;;;;;4782231;30;20060;-51
2021/10/27 05:14:20;;;;;;;10.75;7.85;;;22.60;36.50;;;;;;4782499;29;20055;-50
2021/10/27 05:16:47;;;;;;;11.48;7.50;;;22.60;36.30;;;;;;4782038;29;20047;-52
2021/10/27 05:19:15;;;;;;;10.70;6.82;;;22.60;36.20;;;;;;4766218;29;20433;-52
2021/10/27 05:21:44;;;;;;;9.73;7.07;;;22.60;36.10;;;;;;4779250;29;20052;-50
2021/10/27 05:24:11;;;;;;;12.77;7.32;;;22.60;36.10;;;;;;4781326;30;20059;-51
2021/10/27 05:26:39;;;;;;;11.88;6.55;;;22.60;36.20;;;;;;4775906;29;20455;-54
2021/10/27 05:29:06;;;;;;;11.13;7.65;;;22.60;36.70;;;;;;4785833;29;20047;-55
2021/10/27 05:31:33;;;;;;;9.65;7.05;;;22.60;37.10;;;;;;4776530;29;20476;-53
2021/10/27 05:34:01;;;;;;;9.82;7.70;;;22.60;37.30;;;;;;4777103;29;20055;-52
2021/10/27 05:36:29;;;;;;;8.65;6.95;;;22.60;37.30;;;;;;4774274;30;20060;-58
2021/10/27 05:38:56;;;;;;;8.63;6.60;;;22.70;37.40;;;;;;4759365;29;20749;-57
2021/10/27 05:41:24;;;;;;;7.15;6.20;;;22.70;37.40;;;;;;4763515;30;20071;-56
2021/10/27 05:43:51;;;;;;;9.07;6.65;;;22.70;37.30;;;;;;4773823;30;20055;-54
2021/10/27 05:46:20;;;;;;;9.15;6.55;;;22.70;37.10;;;;;;4772574;29;20151;-56
2021/10/27 05:48:55;;;;;;;9.65;6.70;;;22.70;37.10;;;;;;4761693;29;20059;-56
2021/10/27 05:51:36;;;;;;;7.78;6.97;;;22.80;37.20;;;;;;4769936;29;20506;-56
2021/10/27 05:56:50;;;;;;;10.93;7.05;;;22.80;37.40;;;;;;4770894;30;20063;-55
2021/10/27 05:59:18;;;;;;;10.43;7.78;;;22.80;37.90;;;;;;4760835;29;20060;-57
2021/10/27 06:01:45;;;;;;;8.35;6.93;;;22.90;38.20;;;;;;4771572;29;20114;-55
2021/10/27 06:04:14;;;;;;;10.77;7.35;;;22.90;38.40;;;;;;4774600;30;20055;-56
2021/10/27 06:06:41;;;;;;;15.32;7.80;;;22.90;38.30;;;;;;4776008;30;20126;-56
2021/10/27 06:09:08;;;;;;;10.43;7.35;;;23.00;38.20;;;;;;4764788;29;20051;-54
2021/10/27 06:11:38;;;;;;;10.52;8.05;;;23.00;38.20;;;;;;4767289;30;20055;-57
2021/10/27 06:14:06;;;;;;;8.65;6.82;;;23.00;37.90;;;;;;4775874;29;20056;-58
2021/10/27 06:16:33;;;;;;;15.85;8.20;;;23.10;38.10;;;;;;4776165;29;20471;-56
2021/10/27 06:19:00;;;;;;;9.82;7.38;;;23.20;38.10;;;;;;4761933;29;20549;-56
2021/10/27 06:21:28;;;;;;;16.08;7.78;;;23.20;38.10;;;;;;4763147;30;20071;-58
2021/10/27 06:23:56;;;;;;;11.63;7.88;;;23.20;38.20;;;;;;4770570;30;20082;-51
2021/10/27 06:26:24;;;;;;;12.23;7.57;;;23.20;38.50;;;;;;4772827;30;20066;-55
2021/10/27 06:31:42;;;;;;;9.77;7.18;;;23.30;38.40;;;;;;4769079;29;20059;-57
2021/10/27 06:34:22;;;;;;;13.85;7.45;;;23.40;38.30;;;;;;4784047;29;20437;-58
2021/10/27 06:37:06;;;;;;;10.17;7.93;;;23.40;38.10;;;;;;4776033;29;20500;-58
2021/10/27 06:47:56;;;;;;;15.90;8.82;;;23.60;37.60;;;;;;4765992;29;20106;-57
2021/10/27 06:50:23;;;;;;;11.00;8.30;;;23.60;37.60;;;;;;4762492;29;20059;-56
2021/10/27 06:52:51;;;;;;;16.40;8.20;;;23.70;37.60;;;;;;4775732;29;20125;-55
2021/10/27 06:55:18;;;;;;;10.45;7.97;;;23.70;37.60;;;;;;4774084;30;20055;-55
2021/10/27 06:57:45;;;;;;;11.77;8.50;;;23.70;37.60;;;;;;4771955;29;20525;-56
2021/10/27 07:00:23;;;;;;;10.90;8.45;;;23.80;37.50;;;;;;4754899;29;20059;-55
2021/10/27 07:16:51;;;;;;;12.18;10.10;;;24.00;37.10;;;;;;4770770;29;20121;-57
2021/10/27 07:19:19;;;;;;;14.18;10.35;;;24.10;37.10;;;;;;4754625;29;20055;-54
2021/10/27 07:21:47;;;;;;;19.55;10.10;;;24.10;37.10;;;;;;4768637;29;20066;-59
2021/10/27 07:24:16;;;;;;;14.75;10.35;;;24.10;37.00;;;;;;4775174;30;20047;-57
2021/10/27 07:26:44;;;;;;;14.02;10.15;;;24.20;37.00;;;;;;4777049;29;20047;-53
2021/10/27 07:29:11;;;;;;;13.90;10.25;;;24.20;36.90;;;;;;4754205;29;20744;-54
2021/10/27 07:31:38;;;;;;;12.00;9.73;;;24.20;36.80;;;;;;4762904;29;20547;-54
2021/10/27 07:34:10;;;;;;;15.55;10.10;;;24.30;36.80;;;;;;4770716;30;20112;-56
2021/10/27 07:39:54;;;;;;;19.80;10.02;;;24.30;36.90;;;;;;4775554;30;20059;-58
2021/10/27 07:42:12;;;;;;;14.18;10.23;;;24.40;36.80;;;;;;4772541;29;20090;-57
2021/10/27 07:44:39;;;;;;;13.40;10.00;;;24.40;36.70;;;;;;4774395;29;20490;-58
2021/10/27 07:47:07;;;;;;;15.60;10.68;;;24.50;36.80;;;;;;4774803;30;20204;-58
2021/10/27 07:49:34;;;;;;;14.00;10.13;;;24.50;36.90;;;;;;4753353;29;20566;-57
2021/10/27 07:52:01;;;;;;;15.80;10.32;;;24.50;37.00;;;;;;4772188;30;20070;-57
2021/10/27 07:54:28;;;;;;;13.82;9.73;;;24.60;37.10;;;;;;4779660;30;20104;-57
2021/10/27 07:56:56;;;;;;;13.98;10.68;;;24.60;37.00;;;;;;4775998;29;20721;-56
2021/10/27 07:59:23;;;;;;;14.25;10.93;;;24.60;36.90;;;;;;4753259;29;20087;-56
2021/10/27 08:01:50;;;;;;;14.63;10.57;;;24.60;36.80;;;;;;4777609;29;20059;-57
2021/10/27 08:04:19;;;;;;;15.82;10.77;;;24.60;36.60;;;;;;4774259;30;20138;-56
2021/10/27 08:06:47;;;;;;;11.95;10.23;;;24.70;36.50;;;;;;4780019;29;20063;-56
2021/10/27 08:09:14;;;;;;;13.65;10.48;;;24.70;36.50;;;;;;4766928;29;20056;-55
2021/10/27 08:11:42;;;;;;;14.15;10.40;;;24.70;36.50;;;;;;4768863;29;20111;-56
2021/10/27 08:14:09;;;;;;;11.98;9.63;;;24.70;36.40;;;;;;4774736;29;20569;-56
2021/10/27 08:16:36;;;;;;;14.57;10.63;;;24.80;36.40;;;;;;4775427;29;20063;-54
2021/10/27 08:19:04;;;;;;;11.90;9.73;;;24.80;36.40;;;;;;4761860;29;20063;-53
2021/10/27 08:21:31;;;;;;;11.40;9.35;;;24.80;36.40;;;;;;4769277;29;20496;-55
2021/10/27 08:23:59;;;;;;;12.30;9.63;;;24.90;36.50;;;;;;4777836;29;20070;-54
2021/10/27 08:26:27;;;;;;;19.02;10.63;;;24.90;36.40;;;;;;4772189;29;20059;-54
2021/10/27 08:28:56;;;;;;;13.82;9.40;;;24.90;36.30;;;;;;4763567;29;20082;-58
2021/10/27 08:31:36;;;;;;;14.60;10.15;;;25.00;36.10;;;;;;4769741;29;20059;-56
2021/10/27 08:34:15;;;;;;;12.98;9.65;;;25.00;36.10;;;;;;4777967;30;20054;-56
2021/10/27 08:36:42;;;;;;;14.27;9.98;;;25.00;36.00;;;;;;4774897;29;20058;-55
2021/10/27 08:39:10;;;;;;;12.00;10.27;;;25.10;36.10;;;;;;4755138;29;20097;-57
2021/10/27 08:41:44;;;;;;;13.65;9.75;;;25.10;36.00;;;;;;4770815;29;20071;-57
2021/10/27 08:44:11;;;;;;;13.38;9.40;;;25.10;36.00;;;;;;4776491;29;20154;-55
2021/10/27 08:46:40;;;;;;;14.25;9.90;;;25.10;36.00;;;;;;4771548;30;20059;-51
2021/10/27 08:49:08;;;;;;;12.25;9.95;;;25.10;36.10;;;;;;4761519;29;20059;-58
2021/10/27 08:51:36;;;;;;;13.60;9.40;;;25.20;36.30;;;;;;4772055;29;20371;-57
2021/10/27 08:54:06;;;;;;;13.75;9.80;;;25.20;36.30;;;;;;4779201;29;20051;-53
2021/10/27 08:56:34;;;;;;;;;;;25.20;36.30;;;;;;4774001;30;20051;-53
2021/10/27 08:59:16;;;;;;;13.38;9.38;;;25.20;36.20;;;;;;4760700;29;19933;-55
2021/10/27 09:01:56;;;;;;;15.63;9.77;;;25.30;36.20;;;;;;4769374;29;20060;-51
2021/10/27 09:04:40;;;;;;;17.77;9.90;;;25.30;36.10;;;;;;4774128;30;20134;-55
2021/10/27 09:07:23;;;;;;;13.75;9.93;;;25.30;36.00;;;;;;4773518;30;20059;-57
2021/10/27 09:10:20;;;;;;;12.63;9.10;;;25.40;36.40;;;;;;4755698;29;20502;-56
2021/10/27 09:36:09;;;;;;;11.57;8.10;;;25.50;34.60;;;;;;4774125;29;20060;-58
2021/10/27 09:56:10;;;;;;;12.05;8.00;;;25.60;33.80;;;;;;4776813;29;20425;-59
2021/10/27 10:04:26;;;;;;;10.27;7.00;;;25.60;33.30;;;;;;4772650;29;20195;-58
2021/10/27 10:06:59;;;;;;;11.00;7.18;;;25.60;33.00;;;;;;4771329;29;20534;-56
2021/10/27 10:09:28;;;;;;;8.45;6.43;;;25.60;33.20;;;;;;4755251;29;20111;-54
2021/10/27 10:11:57;;;;;;;11.60;6.90;;;25.60;33.10;;;;;;4773181;29;20464;-56
2021/10/27 10:14:24;;;;;;;7.03;5.88;;;25.70;32.70;;;;;;4772034;30;20058;-57
2021/10/27 10:17:03;;;;;;;9.32;6.32;;;25.70;32.50;;;;;;4775689;30;20108;-56
2021/10/27 10:19:38;;;;;;;7.10;5.50;;;25.70;32.60;;;;;;4761300;29;20051;-57
2021/10/27 10:22:27;;;;;;;7.82;6.25;;;25.70;32.40;;;;;;4771758;30;20087;-60
2021/10/27 10:25:14;;;;;;;9.55;7.93;;;25.70;32.20;;;;;;4733423;29;1280048;-58
2021/10/27 10:27:49;;;;;;;9.05;6.72;;;25.70;30.90;;;;;;4768144;29;20062;-57
2021/10/27 10:30:39;;;;;;;11.52;7.82;;;25.60;31.00;;;;;;4765106;29;20083;-59
2021/10/27 10:33:08;;;;;;;9.38;6.68;;;25.50;31.00;;;;;;4776813;30;20059;-56
2021/10/27 10:35:59;;;;;;;13.23;6.38;;;25.50;31.60;;;;;;4777668;30;20047;-57
2021/10/27 10:39:15;;;;;;;7.72;5.25;;;25.50;32.10;;;;;;4767427;29;20090;-56
2021/10/27 10:42:01;;;;;;;6.25;5.05;;;25.50;32.40;;;;;;4767212;29;20059;-58
2021/10/27 11:25:16;;;;;;;8.10;5.10;;;25.70;30.50;;;;;;4773926;30;20059;-58
2021/10/27 11:39:47;;;;;;;5.10;4.60;;;25.70;30.60;;;;;;4758973;29;20415;-60
2021/10/27 11:42:35;;;;;;;14.43;5.45;;;25.70;30.00;;;;;;4775894;29;20063;-57
2021/10/27 11:45:21;;;;;;;7.70;5.10;;;25.70;29.90;;;;;;4780256;30;20048;-58
2021/10/27 11:47:52;;;;;;;6.30;5.03;;;25.70;30.00;;;;;;4772743;29;20060;-57
2021/10/27 11:50:20;;;;;;;7.15;5.13;;;25.70;30.00;;;;;;4749903;30;20074;-56
2021/10/27 11:52:52;;;;;;;4.82;4.10;;;25.70;29.90;;;;;;4778266;30;20055;-56
2021/10/27 11:55:22;;;;;;;8.98;5.20;;;25.70;30.00;;;;;;4776718;29;20055;-54
2021/10/27 11:57:53;;;;;;;8.73;4.73;;;25.70;30.00;;;;;;4771132;29;20108;-58
2021/10/27 12:00:32;;;;;;;7.20;5.43;;;25.70;30.50;;;;;;4769064;29;20056;-57
2021/10/27 12:03:11;;;;;;;7.78;4.97;;;25.70;30.90;;;;;;4779857;29;20067;-56
2021/10/27 12:05:58;;;;;;;6.35;4.78;;;25.70;31.00;;;;;;4781127;29;20047;-57
2021/10/27 12:08:44;;;;;;;7.30;4.40;;;25.80;30.50;;;;;;4761944;29;20467;-58
2021/10/27 12:11:19;;;;;;;6.57;4.95;;;25.80;30.10;;;;;;4766767;29;20047;-57
2021/10/27 12:14:23;;;;;;;13.27;5.40;;;25.80;29.80;;;;;;4783096;29;20055;-54
2021/10/27 12:19:30;;;;;;;8.20;5.57;;;25.80;29.40;;;;;;4762426;29;20077;-51
2021/10/27 12:22:05;;;;;;;5.93;4.95;;;25.80;29.20;;;;;;4772045;29;20631;-55
2021/10/27 12:24:39;;;;;;;6.32;4.72;;;25.80;29.00;;;;;;4775743;29;20063;-54
2021/10/27 12:27:31;;;;;;;6.50;4.85;;;25.80;29.20;;;;;;4777144;29;20566;-55
2021/10/27 12:30:04;;;;;;;6.03;4.68;;;25.80;29.50;;;;;;4757881;29;20083;-55
2021/10/27 12:32:32;;;;;;;7.70;5.03;;;25.80;29.50;;;;;;4774282;30;20190;-56
2021/10/27 12:35:13;;;;;;;8.38;4.45;;;25.80;29.30;;;;;;4779527;29;20051;-55
2021/10/27 12:37:50;;;;;;;5.57;4.68;;;25.80;29.50;;;;;;4774006;29;20497;-53
2021/10/27 12:40:31;;;;;;;7.82;5.15;;;25.80;29.50;;;;;;4755989;29;20057;-55
2021/10/27 12:43:12;;;;;;;4.60;4.20;;;25.80;29.00;;;;;;4776836;29;20102;-54
2021/10/27 12:45:45;;;;;;;8.57;4.80;;;25.80;29.30;;;;;;4775634;30;20109;-57
2021/10/27 12:48:24;;;;;;;5.00;4.50;;;25.80;29.40;;;;;;4767816;29;20402;-55
2021/10/27 12:51:05;;;;;;;4.75;4.03;;;25.70;29.50;;;;;;4764668;29;20086;-56
2021/10/27 12:53:39;;;;;;;10.32;4.65;;;25.70;29.60;;;;;;4774940;29;20051;-54
2021/10/27 12:56:20;;;;;;;5.40;4.10;;;25.70;29.80;;;;;;4776680;29;20069;-50
2021/10/27 12:58:54;;;;;;;;;;;25.70;29.80;;;;;;4763915;29;20043;-55
2021/10/27 13:01:39;;;;;;;7.80;3.95;;;25.70;29.30;;;;;;4765590;30;19945;-57
2021/10/27 13:04:29;;;;;;;4.63;4.15;;;25.70;29.60;;;;;;4786458;29;20055;-55
2021/10/27 13:07:01;;;;;;;6.88;4.22;;;25.70;29.70;;;;;;4772346;29;20051;-56
2021/10/27 13:10:03;;;;;;;4.80;3.72;;;25.70;29.60;;;;;;4762375;29;20104;-56
2021/10/27 13:15:14;;;;;;;8.02;3.92;;;25.70;29.60;;;;;;4774750;29;20108;-57
2021/10/27 13:18:01;;;;;;;4.78;4.10;;;25.80;29.50;;;;;;4770731;29;20104;-56
2021/10/27 13:20:58;;;;;;;4.68;4.10;;;25.70;29.40;;;;;;4767276;29;20132;-56
2021/10/27 13:23:43;;;;;;;8.15;4.45;;;25.80;29.30;;;;;;4772519;30;20852;-54
2021/10/27 13:31:38;;;;;;;4.53;4.10;;;25.80;29.30;;;;;;4768156;30;20051;-55
2021/10/27 13:34:06;;;;;;;6.95;4.32;;;25.70;29.20;;;;;;4776184;30;20112;-57
2021/10/27 13:36:33;;;;;;;6.70;4.13;;;25.70;29.30;;;;;;4775917;30;20108;-60
2021/10/27 13:39:03;;;;;;;5.95;4.05;;;25.70;29.30;;;;;;4762761;29;20055;-59
2021/10/27 13:41:31;;;;;;;;;;;25.80;29.40;;;;;;4768620;29;20090;-58
2021/10/27 13:44:06;;;;;;;7.97;4.32;;;25.80;29.50;;;;;;4775252;30;19937;-58
2021/10/27 13:46:39;;;;;;;5.35;4.85;;;25.80;29.60;;;;;;4776778;30;20060;-55
2021/10/27 13:49:40;;;;;;;8.93;4.75;;;25.80;29.20;;;;;;4757774;29;20047;-56
2021/10/27 14:06:03;;;;;;;7.70;3.92;;;25.60;29.50;;;;;;4774000;29;20062;-56
2021/10/27 14:08:44;;;;;;;;;;;25.70;29.60;;;;;;4770037;29;20051;-58
2021/10/27 14:11:24;;;;;;;5.65;4.40;;;25.70;29.70;;;;;;4772905;30;20376;-58
2021/10/27 14:14:03;;;;;;;8.23;3.75;;;25.70;29.90;;;;;;4778135;29;20055;-55
2021/10/27 14:16:51;;;;;;;4.72;4.20;;;25.70;29.90;;;;;;4778426;29;20444;-54
2021/10/27 14:19:29;;;;;;;8.93;4.18;;;25.70;30.00;;;;;;4765129;29;20546;-50
2021/10/27 14:22:27;;;;;;;4.65;3.70;;;25.70;30.00;;;;;;4765941;29;20112;-53
2021/10/27 14:39:12;;;;;;;5.57;3.97;;;25.80;30.90;;;;;;4764306;29;20055;-57
2021/10/27 14:47:21;;;;;;;4.13;3.63;;;25.80;30.70;;;;;;4771188;30;20443;-57
2021/10/27 14:51:06;;;;;;;7.20;3.92;;;25.70;30.30;;;;;;4765785;29;20146;-57
2021/10/27 15:20:52;;;;;;;6.90;5.55;;;25.40;30.70;;;;;;4771573;29;20112;-55
2021/10/27 15:23:37;;;;;;;6.75;5.38;;;25.40;30.80;;;;;;4777073;30;20059;-52
2021/10/27 15:29:16;;;;;;;6.90;5.63;;;25.30;31.00;;;;;;4770142;29;20051;-55
2021/10/27 15:31:54;;;;;;;6.43;5.82;;;25.30;31.10;;;;;;4781110;29;20082;-55
2021/10/27 15:34:47;;;;;;;8.07;6.18;;;25.30;31.20;;;;;;4779879;29;20441;-55
2021/10/27 15:40:18;;;;;;;8.48;5.78;;;25.20;31.20;;;;;;4781073;30;20452;-55
2021/10/27 15:42:54;;;;;;;8.52;6.18;;;25.10;32.00;;;;;;4774498;29;20054;-57
2021/10/27 15:51:02;;;;;;;7.80;6.25;;;25.00;34.50;;;;;;4766394;30;20116;-56
2021/10/27 15:53:29;;;;;;;8.20;6.05;;;25.00;34.30;;;;;;4780645;30;20112;-56
2021/10/27 15:55:56;;;;;;;10.20;6.22;;;25.00;34.10;;;;;;4775988;29;20714;-57
2021/10/27 15:58:23;;;;;;;8.73;6.90;;;25.00;33.90;;;;;;4759742;29;20426;-57
2021/10/27 16:00:51;;;;;;;10.57;7.05;;;24.90;33.70;;;;;;4771220;29;20055;-55
2021/10/27 16:03:18;;;;;;;9.68;6.35;;;24.90;33.50;;;;;;4780635;29;20304;-56
2021/10/27 16:05:47;;;;;;;12.05;7.43;;;24.90;33.40;;;;;;4762701;30;20124;-56
2021/10/27 16:08:19;;;;;;;13.57;7.78;;;24.90;33.40;;;;;;4770641;29;20488;-56
2021/10/27 16:10:48;;;;;;;13.63;7.10;;;24.90;33.40;;;;;;4771678;29;20108;-56
2021/10/27 16:13:15;;;;;;;9.00;6.40;;;24.90;33.40;;;;;;4784318;29;20055;-55
2021/10/27 16:15:52;;;;;;;8.98;6.85;;;24.80;33.30;;;;;;4783053;29;20054;-56
2021/10/27 16:18:19;;;;;;;12.30;7.43;;;24.80;33.40;;;;;;4769971;29;20054;-54
2021/10/27 16:20:47;;;;;;;8.23;6.85;;;24.80;33.40;;;;;;4776053;29;20429;-52
2021/10/27 16:23:15;;;;;;;10.93;7.40;;;24.70;33.40;;;;;;4783460;29;20132;-56
2021/10/27 16:25:43;;;;;;;10.05;7.03;;;24.70;33.50;;;;;;4781448;30;20048;-55
2021/10/27 16:28:11;;;;;;;10.68;7.45;;;24.70;33.50;;;;;;4775277;29;20374;-56
2021/10/27 16:30:39;;;;;;;9.38;6.93;;;24.70;33.60;;;;;;4773331;29;20060;-53
2021/10/27 16:33:06;;;;;;;8.70;7.05;;;24.70;33.70;;;;;;4764538;30;20062;-56
2021/10/27 16:35:34;;;;;;;9.70;6.90;;;24.60;33.70;;;;;;4775573;30;20055;-55
2021/10/27 16:38:04;;;;;;;11.43;7.53;;;24.60;33.70;;;;;;4772565;29;20383;-51